Time;durP1;ratioP1;P1;durP2;ratioP2;P2;SDS_P1;SDS_P2;PMS_P1;PMS_P2;Temp;Humidity;BMP_temperature;BMP_pressure;BME280_temperature;BME280_humidity;BME280_pressure;Samples;Min_cycle;Max_cycle;Signal;HPM_P1;HPM_P2
2022/10/18 00:03:51;;;;;;;27.92;13.95;;;;;;;;;;8366100;28;20064;-85
2022/10/18 00:07:53;;;;;;;30.30;16.15;;;;;;;;;;8365865;28;20124;-86
2022/10/18 00:11:57;;;;;;;26.02;15.65;;;;;;;;;;8366147;28;20500;-85
2022/10/18 00:16:01;;;;;;;35.45;16.27;;;;;;;;;;8365909;28;20123;-85
2022/10/18 00:20:05;;;;;;;31.45;16.65;;;;;;;;;;8365482;28;20041;-85
2022/10/18 00:24:08;;;;;;;35.58;16.90;;;;;;;;;;8365414;28;20060;-86
2022/10/18 00:28:12;;;;;;;32.08;17.05;;;;;;;;;;8365310;28;20075;-86
2022/10/18 00:32:14;;;;;;;35.33;17.30;;;;;;;;;;8364842;28;20047;-85
2022/10/18 00:36:17;;;;;;;34.70;18.00;;;;;;;;;;8365058;28;20039;-85
2022/10/18 00:40:19;;;;;;;27.90;16.13;;;;;;;;;;8364948;28;20053;-85
2022/10/18 00:44:59;;;;;;;27.92;15.60;;;;;;;;;;8365154;28;20501;-85
2022/10/18 00:49:06;;;;;;;34.97;17.40;;;;;;;;;;8365086;28;20423;-85
2022/10/18 00:53:13;;;;;;;37.33;18.02;;;;;;;;;;8364377;28;20083;-86
2022/10/18 00:57:16;;;;;;;31.50;17.73;;;;;;;;;;8364546;28;20047;-85
2022/10/18 01:01:18;;;;;;;41.90;18.63;;;;;;;;;;8364260;28;20489;-86
2022/10/18 01:05:22;;;;;;;38.30;19.98;;;;;;;;;;8350451;28;20040;-85
2022/10/18 01:09:32;;;;;;;34.60;17.80;;;;;;;;;;8363950;28;20045;-85
2022/10/18 01:13:45;;;;;;;30.27;17.08;;;;;;;;;;8363754;28;20044;-86
2022/10/18 01:17:52;;;;;;;38.97;18.15;;;;;;;;;;8363912;28;20072;-84
2022/10/18 01:22:02;;;;;;;37.13;18.75;;;;;;;;;;8363463;28;20053;-85
2022/10/18 01:26:17;;;;;;;38.25;18.20;;;;;;;;;;8363584;28;20485;-86
2022/10/18 01:30:46;;;;;;;46.35;18.77;;;;;;;;;;8363747;28;20044;-85
2022/10/18 01:34:52;;;;;;;40.88;18.17;;;;;;;;;;8363150;28;20044;-85
2022/10/18 01:38:58;;;;;;;37.08;17.10;;;;;;;;;;8363206;28;20055;-85
2022/10/18 01:43:01;;;;;;;35.25;17.70;;;;;;;;;;8362616;28;20521;-85
2022/10/18 01:47:09;;;;;;;38.20;17.15;;;;;;;;;;8362943;28;20122;-84
2022/10/18 01:51:11;;;;;;;40.47;17.50;;;;;;;;;;8362824;28;20045;-84
2022/10/18 01:55:15;;;;;;;42.33;18.55;;;;;;;;;;8362550;28;20128;-84
2022/10/18 01:59:35;;;;;;;53.38;19.20;;;;;;;;;;8362839;28;20045;-86
2022/10/18 02:03:46;;;;;;;37.65;17.92;;;;;;;;;;8362799;28;20040;-85
2022/10/18 02:07:53;;;;;;;42.23;18.30;;;;;;;;;;8362532;28;20064;-84
2022/10/18 02:11:57;;;;;;;42.65;19.10;;;;;;;;;;8362345;28;20041;-86
2022/10/18 02:16:04;;;;;;;49.83;19.17;;;;;;;;;;8362379;28;20128;-86
2022/10/18 02:20:10;;;;;;;54.60;21.33;;;;;;;;;;8362306;28;20056;-85
2022/10/18 02:24:15;;;;;;;45.45;20.13;;;;;;;;;;8362417;28;20151;-85
2022/10/18 02:28:18;;;;;;;52.70;20.80;;;;;;;;;;8362471;28;20045;-85
2022/10/18 02:32:29;;;;;;;55.15;21.67;;;;;;;;;;8361961;28;20132;-84
2022/10/18 02:36:37;;;;;;;66.47;26.50;;;;;;;;;;8349393;28;20098;-84
2022/10/18 02:40:39;;;;;;;78.78;39.90;;;;;;;;;;8362288;28;20051;-85
2022/10/18 02:44:42;;;;;;;79.25;41.20;;;;;;;;;;8362082;28;20040;-84
2022/10/18 02:48:44;;;;;;;113.28;60.13;;;;;;;;;;8362058;28;20080;-87
2022/10/18 02:52:48;;;;;;;55.08;26.50;;;;;;;;;;8361778;28;20118;-84
2022/10/18 02:56:51;;;;;;;45.95;21.70;;;;;;;;;;8366254;28;20120;-85
2022/10/18 03:00:53;;;;;;;56.97;21.73;;;;;;;;;;8368001;28;20557;-86
2022/10/18 03:04:56;;;;;;;57.05;20.73;;;;;;;;;;8367786;28;20052;-83
2022/10/18 03:09:01;;;;;;;55.97;21.65;;;;;;;;;;8368135;28;20496;-84
2022/10/18 03:13:03;;;;;;;52.38;19.52;;;;;;;;;;8368053;28;20485;-84
2022/10/18 03:17:06;;;;;;;50.28;21.00;;;;;;;;;;8367496;28;20041;-85
2022/10/18 03:21:09;;;;;;;47.85;19.73;;;;;;;;;;8367294;28;20099;-85
2022/10/18 03:25:13;;;;;;;48.35;19.52;;;;;;;;;;8367392;28;20049;-84
2022/10/18 03:29:15;;;;;;;45.78;20.58;;;;;;;;;;8367621;28;20472;-84
2022/10/18 03:33:18;;;;;;;49.05;21.33;;;;;;;;;;8366882;28;20041;-84
2022/10/18 03:37:20;;;;;;;43.88;18.67;;;;;;;;;;8367030;28;20048;-84
2022/10/18 03:41:24;;;;;;;49.50;19.48;;;;;;;;;;8366828;28;20055;-86
2022/10/18 03:45:26;;;;;;;44.80;18.98;;;;;;;;;;8366578;28;20112;-85
2022/10/18 03:49:29;;;;;;;51.90;21.02;;;;;;;;;;8366666;28;20420;-85
2022/10/18 03:53:31;;;;;;;57.70;19.27;;;;;;;;;;8366497;28;20060;-85
2022/10/18 03:57:35;;;;;;;59.90;21.77;;;;;;;;;;8366777;28;20514;-84
2022/10/18 04:01:38;;;;;;;49.85;20.23;;;;;;;;;;8366149;28;21522;-84
2022/10/18 04:05:41;;;;;;;55.35;21.52;;;;;;;;;;8366105;28;20128;-84
2022/10/18 04:09:43;;;;;;;50.45;19.70;;;;;;;;;;8365953;28;20041;-85
2022/10/18 04:13:47;;;;;;;45.17;19.52;;;;;;;;;;8365696;28;20095;-84
2022/10/18 04:17:49;;;;;;;48.65;19.88;;;;;;;;;;8365675;28;20049;-84
2022/10/18 04:21:51;;;;;;;53.45;25.73;;;;;;;;;;8365168;28;20053;-84
2022/10/18 04:25:54;;;;;;;55.78;25.88;;;;;;;;;;8365581;28;20045;-84
2022/10/18 04:29:58;;;;;;;49.38;24.20;;;;;;;;;;8365247;28;20083;-84
2022/10/18 04:34:01;;;;;;;61.28;25.58;;;;;;;;;;8365300;28;20618;-85
2022/10/18 04:38:03;;;;;;;54.40;21.90;;;;;;;;;;8365055;28;20048;-84
2022/10/18 04:42:05;;;;;;;57.53;29.10;;;;;;;;;;8364889;28;20053;-84
2022/10/18 04:46:09;;;;;;;45.47;20.02;;;;;;;;;;8365220;28;20573;-86
2022/10/18 04:50:12;;;;;;;46.75;21.25;;;;;;;;;;8364746;28;20048;-85
2022/10/18 04:54:14;;;;;;;51.03;20.85;;;;;;;;;;8364528;28;20041;-84
2022/10/18 04:58:17;;;;;;;49.55;21.13;;;;;;;;;;8360959;28;20048;-87
2022/10/18 05:02:21;;;;;;;50.50;20.63;;;;;;;;;;8353088;28;20053;-84
2022/10/18 05:06:24;;;;;;;49.03;20.23;;;;;;;;;;8351549;28;20481;-84
2022/10/18 05:10:26;;;;;;;55.00;22.55;;;;;;;;;;8351169;28;20048;-84
2022/10/18 05:14:29;;;;;;;49.97;21.10;;;;;;;;;;8364113;28;20401;-84
2022/10/18 05:18:33;;;;;;;43.00;18.55;;;;;;;;;;8340140;28;20076;-84
2022/10/18 05:22:35;;;;;;;44.60;19.13;;;;;;;;;;8363391;28;20091;-83
2022/10/18 05:26:38;;;;;;;47.70;19.15;;;;;;;;;;8363453;28;20111;-84
2022/10/18 05:30:41;;;;;;;36.72;17.20;;;;;;;;;;8361177;28;20048;-85
2022/10/18 05:34:45;;;;;;;32.67;16.13;;;;;;;;;;8349932;28;20469;-85
2022/10/18 05:38:47;;;;;;;33.30;17.58;;;;;;;;;;8350295;28;20037;-85
2022/10/18 05:42:52;;;;;;;29.58;14.57;;;;;;;;;;8340740;28;20045;-87
2022/10/18 05:46:54;;;;;;;25.88;14.05;;;;;;;;;;8362075;28;20127;-85
2022/10/18 05:51:00;;;;;;;26.55;12.70;;;;;;;;;;8363033;28;20049;-84
2022/10/18 05:55:02;;;;;;;25.15;11.30;;;;;;;;;;8363181;28;20397;-84
2022/10/18 05:59:09;;;;;;;20.38;10.70;;;;;;;;;;8361963;28;20395;-85
2022/10/18 06:03:11;;;;;;;19.05;9.50;;;;;;;;;;8362365;28;20041;-84
2022/10/18 06:07:15;;;;;;;15.15;9.27;;;;;;;;;;8361965;28;20044;-85
2022/10/18 06:11:19;;;;;;;13.30;8.02;;;;;;;;;;8362170;28;20550;-85
2022/10/18 06:15:21;;;;;;;15.05;9.60;;;;;;;;;;8361798;28;20072;-86
2022/10/18 06:19:24;;;;;;;16.85;9.85;;;;;;;;;;8361950;28;20075;-86
2022/10/18 06:23:28;;;;;;;16.05;9.00;;;;;;;;;;8362129;28;20477;-87
2022/10/18 06:27:31;;;;;;;17.98;10.68;;;;;;;;;;8362086;28;20072;-87
2022/10/18 06:31:34;;;;;;;21.48;10.40;;;;;;;;;;8368143;28;20048;-86
2022/10/18 06:35:36;;;;;;;13.23;7.75;;;;;;;;;;8368869;28;20626;-87
2022/10/18 06:39:40;;;;;;;15.43;8.77;;;;;;;;;;8369448;28;20515;-86
2022/10/18 06:43:43;;;;;;;10.75;6.78;;;;;;;;;;8367487;28;20053;-86
2022/10/18 06:47:45;;;;;;;10.23;6.20;;;;;;;;;;8368553;28;20370;-87
2022/10/18 06:51:48;;;;;;;10.25;6.13;;;;;;;;;;8368398;28;20467;-86
2022/10/18 06:55:52;;;;;;;9.00;5.75;;;;;;;;;;8368131;28;20052;-87
2022/10/18 06:59:54;;;;;;;9.52;5.57;;;;;;;;;;8368047;28;20074;-86
2022/10/18 07:03:56;;;;;;;7.82;5.18;;;;;;;;;;8368054;28;20053;-87
2022/10/18 07:07:59;;;;;;;11.13;5.78;;;;;;;;;;8367928;28;20087;-86
2022/10/18 07:12:03;;;;;;;8.80;5.32;;;;;;;;;;8368233;28;20488;-85
2022/10/18 07:16:08;;;;;;;9.25;5.32;;;;;;;;;;8359548;28;20099;-86
2022/10/18 07:20:10;;;;;;;9.05;4.80;;;;;;;;;;8367647;28;20128;-88
2022/10/18 07:24:13;;;;;;;8.63;5.03;;;;;;;;;;8367270;28;20053;-87
2022/10/18 07:37:55;;;;;;;11.77;5.18;;;;;;;;;;8327683;28;20056;-85
2022/10/18 07:42:04;;;;;;;16.27;5.30;;;;;;;;;;8340883;28;20500;-87
2022/10/18 07:46:10;;;;;;;8.75;5.43;;;;;;;;;;8340204;28;20041;-86
2022/10/18 07:50:13;;;;;;;11.57;5.03;;;;;;;;;;8347916;28;20045;-88
2022/10/18 07:54:28;;;;;;;8.15;5.00;;;;;;;;;;8358835;28;20468;-86
2022/10/18 07:58:35;;;;;;;8.18;5.25;;;;;;;;;;8353040;28;20543;-86
2022/10/18 08:02:47;;;;;;;8.57;4.63;;;;;;;;;;8346614;28;20111;-87
2022/10/18 08:06:56;;;;;;;8.07;4.80;;;;;;;;;;8352665;28;20123;-87
2022/10/18 08:11:24;;;;;;;9.43;4.95;;;;;;;;;;8332566;28;20488;-89
2022/10/18 08:15:31;;;;;;;9.63;5.03;;;;;;;;;;8332985;28;20045;-86
2022/10/18 08:19:49;;;;;;;7.97;4.32;;;;;;;;;;8348761;28;20052;-87
2022/10/18 08:23:58;;;;;;;10.60;4.65;;;;;;;;;;8360523;28;20135;-86
2022/10/18 08:28:02;;;;;;;13.10;5.05;;;;;;;;;;8354385;28;20056;-87
2022/10/18 08:32:20;;;;;;;9.65;4.85;;;;;;;;;;8353653;28;20127;-86
2022/10/18 08:36:34;;;;;;;9.00;4.78;;;;;;;;;;8334034;28;20045;-88
2022/10/18 08:40:49;;;;;;;7.95;4.78;;;;;;;;;;8339549;28;20056;-85
2022/10/18 08:49:47;;;;;;;;;;;;;;;;;;8337111;28;20053;-84
2022/10/18 08:54:14;;;;;;;7.38;5.05;;;;;;;;;;8343328;28;19932;-87
2022/10/18 08:58:36;;;;;;;10.43;4.90;;;;;;;;;;8350976;28;20037;-86
2022/10/18 09:03:03;;;;;;;12.13;5.05;;;;;;;;;;8345494;28;20091;-85
2022/10/18 09:07:50;;;;;;;9.00;5.07;;;;;;;;;;8331343;28;20041;-87
2022/10/18 09:12:10;;;;;;;8.07;4.70;;;;;;;;;;8347952;28;20777;-88
2022/10/18 09:16:22;;;;;;;9.18;5.15;;;;;;;;;;8354233;28;20132;-86
2022/10/18 09:20:37;;;;;;;11.52;5.00;;;;;;;;;;8338419;28;20056;-87
2022/10/18 09:24:50;;;;;;;9.90;5.38;;;;;;;;;;8296201;28;20219;-87
2022/10/18 09:29:06;;;;;;;8.55;5.25;;;;;;;;;;8293119;28;20058;-86
2022/10/18 09:33:29;;;;;;;8.10;5.28;;;;;;;;;;8293645;28;20045;-87
2022/10/18 09:37:37;;;;;;;10.23;5.45;;;;;;;;;;8306806;28;20560;-86
2022/10/18 09:41:48;;;;;;;9.77;5.07;;;;;;;;;;8325669;28;20814;-85
2022/10/18 09:50:25;;;;;;;7.53;5.28;;;;;;;;;;8320378;28;20057;-86
2022/10/18 09:54:41;;;;;;;9.25;5.15;;;;;;;;;;8298512;28;20072;-85
2022/10/18 09:59:02;;;;;;;6.80;4.60;;;;;;;;;;8283659;28;20050;-86
2022/10/18 10:03:33;;;;;;;8.55;5.35;;;;;;;;;;8301873;28;20045;-89
2022/10/18 10:07:47;;;;;;;11.98;5.40;;;;;;;;;;8296942;28;20049;-85
2022/10/18 10:11:52;;;;;;;8.43;5.60;;;;;;;;;;8311347;28;20053;-86
2022/10/18 10:16:04;;;;;;;11.02;5.88;;;;;;;;;;8298934;28;20056;-86
2022/10/18 10:20:28;;;;;;;10.85;5.60;;;;;;;;;;8311279;28;20049;-86
2022/10/18 10:24:56;;;;;;;9.13;5.30;;;;;;;;;;8354718;28;20107;-86
2022/10/18 10:29:07;;;;;;;11.82;6.22;;;;;;;;;;8343632;28;20123;-85
2022/10/18 10:33:34;;;;;;;10.45;5.93;;;;;;;;;;8329263;28;20509;-85
2022/10/18 10:37:42;;;;;;;11.52;5.60;;;;;;;;;;8331075;28;20386;-86
2022/10/18 10:41:48;;;;;;;12.63;6.00;;;;;;;;;;8334202;28;20164;-87
2022/10/18 10:46:17;;;;;;;12.93;6.22;;;;;;;;;;8338188;28;20052;-85
2022/10/18 10:50:26;;;;;;;;;;;;;;;;;;8334019;28;20132;-87
2022/10/18 10:54:47;;;;;;;9.85;6.07;;;;;;;;;;8355051;28;19925;-87
2022/10/18 10:58:50;;;;;;;10.63;5.63;;;;;;;;;;8346800;28;20153;-90
2022/10/18 11:03:06;;;;;;;12.27;5.90;;;;;;;;;;8347099;28;20056;-87
2022/10/18 11:07:16;;;;;;;10.95;5.60;;;;;;;;;;8340681;28;20048;-85
2022/10/18 11:11:26;;;;;;;9.73;5.55;;;;;;;;;;8350295;28;20052;-86
2022/10/18 11:15:35;;;;;;;10.02;7.10;;;;;;;;;;8353904;28;20091;-86
2022/10/18 11:19:44;;;;;;;18.42;11.77;;;;;;;;;;8344237;28;20496;-86
2022/10/18 11:23:47;;;;;;;16.92;9.32;;;;;;;;;;8355238;28;20057;-85
2022/10/18 11:28:00;;;;;;;9.45;6.55;;;;;;;;;;8355909;28;20056;-87
2022/10/18 11:32:13;;;;;;;14.95;5.90;;;;;;;;;;8356334;28;20115;-87
2022/10/18 11:36:25;;;;;;;11.57;7.32;;;;;;;;;;8329938;28;20045;-87
2022/10/18 11:40:41;;;;;;;13.93;9.15;;;;;;;;;;8345170;28;20069;-86
2022/10/18 11:44:54;;;;;;;15.18;7.32;;;;;;;;;;8344003;28;20049;-87
2022/10/18 11:49:10;;;;;;;15.07;6.80;;;;;;;;;;8338575;28;20055;-86
2022/10/18 11:53:23;;;;;;;10.07;6.30;;;;;;;;;;8347827;28;20059;-85
2022/10/18 11:57:44;;;;;;;11.63;7.65;;;;;;;;;;8360796;28;20136;-86
2022/10/18 12:01:58;;;;;;;9.85;6.40;;;;;;;;;;8350792;28;20053;-87
2022/10/18 12:06:05;;;;;;;27.35;12.05;;;;;;;;;;8340892;28;20146;-89
2022/10/18 12:10:10;;;;;;;18.38;9.40;;;;;;;;;;8354163;28;20062;-88
2022/10/18 12:14:22;;;;;;;11.93;7.38;;;;;;;;;;8332990;28;20064;-85
2022/10/18 12:18:28;;;;;;;10.95;6.43;;;;;;;;;;8346613;28;20473;-86
2022/10/18 12:22:36;;;;;;;10.45;7.20;;;;;;;;;;8339416;28;20084;-85
2022/10/18 12:26:39;;;;;;;13.93;9.07;;;;;;;;;;8341817;28;20606;-88
2022/10/18 12:30:50;;;;;;;12.23;7.10;;;;;;;;;;8352270;28;20053;-86
2022/10/18 12:34:59;;;;;;;11.07;7.10;;;;;;;;;;8320746;28;20053;-87
2022/10/18 12:39:05;;;;;;;9.98;6.45;;;;;;;;;;8348991;28;20048;-86
2022/10/18 12:43:10;;;;;;;11.55;6.13;;;;;;;;;;8340998;28;20042;-87
2022/10/18 12:47:22;;;;;;;14.95;6.80;;;;;;;;;;8345876;28;20106;-87
2022/10/18 12:51:26;;;;;;;10.90;6.63;;;;;;;;;;8350574;28;20417;-86
2022/10/18 12:55:31;;;;;;;9.23;6.80;;;;;;;;;;8337899;28;20084;-86
2022/10/18 12:59:42;;;;;;;9.52;6.72;;;;;;;;;;8342265;28;20053;-85
2022/10/18 13:03:54;;;;;;;11.60;6.70;;;;;;;;;;8341443;28;20589;-86
2022/10/18 13:08:40;;;;;;;12.63;6.75;;;;;;;;;;8332349;28;20052;-86
2022/10/18 13:13:00;;;;;;;11.13;6.95;;;;;;;;;;8343604;28;20127;-86
2022/10/18 13:17:15;;;;;;;12.07;6.90;;;;;;;;;;8354663;28;20102;-86
2022/10/18 13:21:22;;;;;;;9.70;6.55;;;;;;;;;;8339975;28;20053;-86
2022/10/18 13:25:31;;;;;;;9.23;6.75;;;;;;;;;;8336988;28;20443;-87
2022/10/18 13:29:50;;;;;;;11.32;6.72;;;;;;;;;;8344318;28;20669;-87
2022/10/18 13:33:53;;;;;;;12.80;7.22;;;;;;;;;;8347861;28;20114;-86
2022/10/18 13:37:59;;;;;;;10.18;6.60;;;;;;;;;;8347785;28;20049;-89
2022/10/18 13:42:29;;;;;;;11.73;7.05;;;;;;;;;;8342601;28;20040;-89
2022/10/18 13:47:17;;;;;;;12.27;7.20;;;;;;;;;;8337026;28;20064;-86
2022/10/18 13:51:45;;;;;;;15.75;6.88;;;;;;;;;;8330729;28;20099;-88
2022/10/18 13:56:06;;;;;;;14.13;9.18;;;;;;;;;;8330376;28;20041;-85
2022/10/18 14:00:39;;;;;;;17.20;8.40;;;;;;;;;;8333860;28;20052;-87
2022/10/18 14:10:01;;;;;;;10.43;6.68;;;;;;;;;;8452349;22;20065;-88
2022/10/18 14:18:46;;;;;;;16.52;9.00;;;;;;;;;;8404030;22;20053;-88
2022/10/18 14:22:56;;;;;;;14.30;8.55;;;;;;;;;;8392901;28;20483;-86
2022/10/18 14:27:18;;;;;;;11.35;6.65;;;;;;;;;;8384688;28;20056;-88
2022/10/18 14:31:21;;;;;;;10.63;6.50;;;;;;;;;;8377630;28;20044;-89
2022/10/18 14:35:27;;;;;;;10.32;6.60;;;;;;;;;;8377639;28;20033;-89
2022/10/18 14:39:31;;;;;;;15.90;6.43;;;;;;;;;;8388831;28;20049;-88
2022/10/18 14:43:33;;;;;;;13.52;7.00;;;;;;;;;;8383429;28;20055;-89
2022/10/18 14:47:37;;;;;;;9.18;6.20;;;;;;;;;;8393709;28;20052;-88
2022/10/18 14:51:43;;;;;;;15.77;9.65;;;;;;;;;;8392060;28;20044;-88
2022/10/18 14:55:53;;;;;;;13.18;8.68;;;;;;;;;;8399957;28;20045;-88
2022/10/18 15:00:00;;;;;;;11.00;6.60;;;;;;;;;;8396248;28;20041;-88
2022/10/18 15:04:09;;;;;;;14.88;6.57;;;;;;;;;;8392488;28;20041;-89
2022/10/18 15:08:13;;;;;;;13.00;6.85;;;;;;;;;;8391681;28;20086;-88
2022/10/18 15:12:22;;;;;;;11.45;7.50;;;;;;;;;;8389435;28;20412;-88
2022/10/18 15:16:34;;;;;;;17.52;8.68;;;;;;;;;;8381689;28;20071;-87
2022/10/18 15:20:42;;;;;;;13.20;8.43;;;;;;;;;;8400026;28;20036;-87
2022/10/18 15:25:23;;;;;;;11.38;7.43;;;;;;;;;;8480748;22;20107;-89
2022/10/18 15:34:35;;;;;;;38.00;15.70;;;;;;;;;;8365206;28;20383;-88
2022/10/18 15:44:27;;;;;;;15.57;8.77;;;;;;;;;;8365508;28;20601;-89
2022/10/18 15:48:38;;;;;;;15.73;8.23;;;;;;;;;;8397425;28;20044;-88
2022/10/18 15:57:09;;;;;;;25.33;12.50;;;;;;;;;;8382077;28;19920;-89
2022/10/18 16:17:03;;;;;;;29.30;17.08;;;;;;;;;;8505144;22;20040;-89
2022/10/18 16:25:55;;;;;;;34.58;19.30;;;;;;;;;;8412360;22;20041;-88
2022/10/18 16:44:33;;;;;;;36.63;19.05;;;;;;;;;;8361980;22;20060;-88
2022/10/18 16:48:51;;;;;;;24.98;15.50;;;;;;;;;;8388135;28;20040;-86
2022/10/18 16:53:29;;;;;;;20.67;10.70;;;;;;;;;;8469116;22;20049;-89
2022/10/18 16:58:06;;;;;;;13.40;8.35;;;;;;;;;;8331567;28;20056;-88
2022/10/18 17:02:23;;;;;;;18.13;11.13;;;;;;;;;;8299585;28;20046;-87
2022/10/18 17:15:42;;;;;;;20.92;11.30;;;;;;;;;;8318511;28;20057;-88
2022/10/18 17:19:51;;;;;;;20.42;10.18;;;;;;;;;;8321468;28;20045;-86
2022/10/18 17:23:56;;;;;;;25.15;13.95;;;;;;;;;;8317570;28;20088;-86
2022/10/18 17:28:22;;;;;;;20.52;12.48;;;;;;;;;;8327031;28;20046;-88
2022/10/18 17:32:42;;;;;;;22.40;12.13;;;;;;;;;;8323211;28;20040;-88
2022/10/18 17:36:49;;;;;;;23.17;12.43;;;;;;;;;;8342909;28;20049;-88
2022/10/18 17:40:53;;;;;;;23.58;11.65;;;;;;;;;;8320351;28;20401;-87
2022/10/18 17:45:03;;;;;;;20.30;10.73;;;;;;;;;;8327124;28;20480;-88
2022/10/18 17:49:07;;;;;;;29.13;11.85;;;;;;;;;;8315551;28;20042;-88
2022/10/18 17:53:12;;;;;;;30.38;14.60;;;;;;;;;;8321455;28;20068;-89
2022/10/18 17:57:16;;;;;;;20.55;11.55;;;;;;;;;;8325782;28;20092;-87
2022/10/18 18:01:21;;;;;;;12.48;8.35;;;;;;;;;;8317285;28;20073;-87
2022/10/18 18:05:26;;;;;;;12.63;6.78;;;;;;;;;;8327222;28;20045;-87
2022/10/18 18:09:31;;;;;;;9.18;6.15;;;;;;;;;;8350341;28;20050;-88
2022/10/18 18:13:34;;;;;;;7.60;5.35;;;;;;;;;;8340648;28;20060;-87
2022/10/18 18:17:37;;;;;;;7.32;3.75;;;;;;;;;;8313762;28;20052;-86
2022/10/18 18:21:43;;;;;;;3.75;2.45;;;;;;;;;;8327757;28;20120;-87
2022/10/18 18:25:55;;;;;;;4.05;2.17;;;;;;;;;;8329231;28;20478;-86
2022/10/18 18:29:58;;;;;;;4.30;2.67;;;;;;;;;;8347720;28;20040;-87
2022/10/18 18:34:03;;;;;;;4.40;2.67;;;;;;;;;;8359975;28;20083;-87
2022/10/18 18:38:06;;;;;;;4.45;2.60;;;;;;;;;;8347158;28;20038;-85
2022/10/18 18:42:10;;;;;;;3.88;2.50;;;;;;;;;;8306038;28;20133;-84
2022/10/18 18:46:13;;;;;;;9.95;2.67;;;;;;;;;;8352854;28;20056;-86
2022/10/18 18:50:17;;;;;;;6.75;3.58;;;;;;;;;;8353366;28;20045;-86
2022/10/18 18:54:20;;;;;;;4.63;2.95;;;;;;;;;;8359472;28;20041;-88
2022/10/18 18:58:25;;;;;;;5.18;3.10;;;;;;;;;;8358504;28;20104;-87
2022/10/18 19:02:29;;;;;;;6.95;3.20;;;;;;;;;;8359533;28;20049;-84
2022/10/18 19:06:35;;;;;;;5.97;3.45;;;;;;;;;;8356767;28;20041;-87
2022/10/18 19:10:38;;;;;;;7.90;2.97;;;;;;;;;;8356402;28;20049;-85
2022/10/18 19:14:46;;;;;;;6.22;3.00;;;;;;;;;;8357053;28;20044;-88
2022/10/18 19:18:52;;;;;;;7.40;3.60;;;;;;;;;;8356966;28;20045;-85
2022/10/18 19:22:55;;;;;;;7.65;3.88;;;;;;;;;;8341952;28;20045;-85
2022/10/18 19:27:01;;;;;;;6.40;3.15;;;;;;;;;;8343112;28;20187;-84
2022/10/18 19:31:06;;;;;;;6.13;3.80;;;;;;;;;;8354382;28;20044;-85
2022/10/18 19:35:09;;;;;;;8.27;3.92;;;;;;;;;;8347456;28;20048;-86
2022/10/18 19:39:17;;;;;;;11.10;4.25;;;;;;;;;;8359776;28;20554;-87
2022/10/18 19:43:20;;;;;;;12.43;5.45;;;;;;;;;;8332029;28;20052;-86
2022/10/18 19:47:24;;;;;;;10.88;5.03;;;;;;;;;;8333871;28;20049;-85
2022/10/18 19:51:28;;;;;;;11.13;5.07;;;;;;;;;;8333940;28;20789;-86
2022/10/18 19:55:30;;;;;;;16.13;5.53;;;;;;;;;;8333927;28;20045;-85
2022/10/18 19:59:34;;;;;;;10.32;4.88;;;;;;;;;;8325850;28;20095;-86
2022/10/18 20:03:38;;;;;;;9.85;4.63;;;;;;;;;;8333510;28;20045;-84
2022/10/18 20:07:41;;;;;;;9.10;5.38;;;;;;;;;;8333203;28;20409;-86
2022/10/18 20:11:44;;;;;;;14.30;6.43;;;;;;;;;;8333041;28;20084;-84
2022/10/18 20:15:47;;;;;;;11.40;5.68;;;;;;;;;;8333039;28;20053;-87
2022/10/18 20:19:51;;;;;;;8.88;5.13;;;;;;;;;;8333048;28;20050;-84
2022/10/18 20:23:54;;;;;;;11.55;5.55;;;;;;;;;;8332944;28;20048;-86
2022/10/18 20:27:56;;;;;;;11.27;5.95;;;;;;;;;;8332739;28;20049;-85
2022/10/18 20:31:59;;;;;;;12.90;5.88;;;;;;;;;;8332563;28;20045;-85
2022/10/18 20:36:05;;;;;;;10.52;5.80;;;;;;;;;;8346505;28;20115;-85
2022/10/18 20:40:09;;;;;;;10.60;6.18;;;;;;;;;;8324881;28;20048;-85
2022/10/18 20:44:14;;;;;;;10.65;6.40;;;;;;;;;;8332709;28;20521;-84
2022/10/18 20:48:17;;;;;;;11.65;6.85;;;;;;;;;;8331752;28;20037;-86
2022/10/18 20:52:20;;;;;;;10.40;6.82;;;;;;;;;;8332130;28;20132;-86
2022/10/18 20:56:25;;;;;;;9.68;6.25;;;;;;;;;;8331768;28;20062;-87
2022/10/18 21:00:27;;;;;;;10.82;6.45;;;;;;;;;;8331736;28;20088;-85
2022/10/18 21:04:30;;;;;;;11.80;6.47;;;;;;;;;;8331610;28;20049;-85
2022/10/18 21:08:34;;;;;;;10.55;6.88;;;;;;;;;;8331664;28;20038;-85
2022/10/18 21:12:36;;;;;;;11.05;6.95;;;;;;;;;;8331240;28;20065;-84
2022/10/18 21:16:38;;;;;;;14.82;6.85;;;;;;;;;;8331030;28;20061;-85
2022/10/18 21:20:41;;;;;;;10.02;6.13;;;;;;;;;;8331002;28;20053;-85
2022/10/18 21:24:45;;;;;;;10.52;5.70;;;;;;;;;;8331330;28;20378;-86
2022/10/18 21:28:49;;;;;;;10.20;5.07;;;;;;;;;;8330652;28;20045;-86
2022/10/18 21:32:52;;;;;;;13.73;6.40;;;;;;;;;;8334381;28;20045;-86
2022/10/18 21:36:54;;;;;;;16.17;9.57;;;;;;;;;;8340302;28;20057;-86
2022/10/18 21:40:58;;;;;;;18.88;9.75;;;;;;;;;;8330703;28;20049;-87
2022/10/18 21:45:00;;;;;;;22.30;11.00;;;;;;;;;;8330174;28;20042;-86
2022/10/18 21:49:03;;;;;;;19.33;10.80;;;;;;;;;;8330723;28;20375;-86
2022/10/18 21:53:05;;;;;;;23.20;11.27;;;;;;;;;;8330349;28;20481;-84
2022/10/18 21:57:09;;;;;;;25.55;11.65;;;;;;;;;;8329979;28;20474;-85
2022/10/18 22:01:14;;;;;;;20.33;10.93;;;;;;;;;;8322852;28;20052;-86
2022/10/18 22:05:16;;;;;;;18.45;10.38;;;;;;;;;;8329957;28;20042;-85
2022/10/18 22:09:20;;;;;;;19.13;10.32;;;;;;;;;;8329664;28;20042;-87
2022/10/18 22:13:24;;;;;;;19.45;10.68;;;;;;;;;;8329313;28;20058;-85
2022/10/18 22:17:27;;;;;;;19.48;10.80;;;;;;;;;;8329577;28;20042;-86
2022/10/18 22:21:29;;;;;;;15.82;9.70;;;;;;;;;;8329661;28;20056;-84
2022/10/18 22:25:35;;;;;;;19.90;10.27;;;;;;;;;;8329338;28;20041;-85
2022/10/18 22:29:39;;;;;;;19.95;10.43;;;;;;;;;;8329515;28;20050;-86
2022/10/18 22:33:41;;;;;;;23.48;11.38;;;;;;;;;;8339968;28;20480;-86
2022/10/18 22:37:44;;;;;;;23.15;11.20;;;;;;;;;;8332048;28;20055;-84
2022/10/18 22:41:48;;;;;;;23.33;12.13;;;;;;;;;;8329733;28;20095;-85
2022/10/18 22:45:52;;;;;;;18.08;9.50;;;;;;;;;;8329643;28;20103;-85
2022/10/18 22:49:54;;;;;;;21.48;9.35;;;;;;;;;;8328982;28;20099;-86
2022/10/18 22:53:56;;;;;;;16.30;8.82;;;;;;;;;;8329107;28;20055;-85
2022/10/18 22:57:59;;;;;;;16.38;8.70;;;;;;;;;;8328836;28;20432;-85
2022/10/18 23:02:03;;;;;;;12.50;7.65;;;;;;;;;;8329002;28;20056;-86
2022/10/18 23:06:18;;;;;;;13.77;8.05;;;;;;;;;;8323615;28;20091;-84
2022/10/18 23:10:20;;;;;;;16.08;7.93;;;;;;;;;;8326005;28;20054;-84
2022/10/18 23:14:22;;;;;;;12.95;7.97;;;;;;;;;;8334823;28;20053;-85
2022/10/18 23:18:26;;;;;;;12.27;8.10;;;;;;;;;;8334722;28;20049;-85
2022/10/18 23:22:29;;;;;;;17.40;8.73;;;;;;;;;;8326038;28;20128;-85
2022/10/18 23:26:32;;;;;;;17.00;9.18;;;;;;;;;;8333049;28;20049;-85
2022/10/18 23:30:37;;;;;;;17.15;8.80;;;;;;;;;;8324302;28;20509;-85
2022/10/18 23:34:40;;;;;;;13.60;8.13;;;;;;;;;;8346282;28;20124;-85
2022/10/18 23:38:43;;;;;;;14.35;8.23;;;;;;;;;;8334145;28;20107;-86
2022/10/18 23:42:46;;;;;;;13.82;7.45;;;;;;;;;;8334124;28;20068;-85
2022/10/18 23:46:48;;;;;;;13.98;8.75;;;;;;;;;;8330518;28;20049;-84
2022/10/18 23:50:52;;;;;;;16.67;9.02;;;;;;;;;;8332970;28;20136;-85
2022/10/18 23:54:54;;;;;;;17.85;9.68;;;;;;;;;;8333756;28;20042;-85
2022/10/18 23:58:57;;;;;;;13.85;8.77;;;;;;;;;;8333763;28;20073;-85
